createdAt,value
2023-01-12T00:01:13.950Z,7.90
2023-01-12T00:03:59.488Z,7.90
2023-01-12T00:06:45.108Z,7.80
2023-01-12T00:09:30.374Z,7.90
2023-01-12T00:12:15.343Z,7.90
2023-01-12T00:15:00.480Z,7.70
2023-01-12T00:17:45.491Z,7.70
2023-01-12T00:20:30.459Z,7.60
2023-01-12T00:23:15.633Z,7.60
2023-01-12T00:26:00.718Z,7.50
2023-01-12T00:28:45.940Z,7.50
2023-01-12T00:31:30.927Z,7.60
2023-01-12T00:34:16.719Z,7.60
2023-01-12T00:37:02.099Z,7.50
2023-01-12T00:40:00.863Z,7.40
2023-01-12T00:43:06.239Z,7.50
2023-01-12T00:45:51.547Z,7.50
2023-01-12T00:48:36.628Z,7.60
2023-01-12T00:51:21.750Z,7.60
2023-01-12T00:54:08.294Z,7.50
2023-01-12T00:56:53.354Z,7.40
2023-01-12T00:59:38.254Z,7.40
2023-01-12T01:02:23.681Z,7.50
2023-01-12T01:05:09.066Z,7.50
2023-01-12T01:07:54.388Z,7.60
2023-01-12T01:10:39.470Z,7.50
2023-01-12T01:13:24.447Z,7.50
2023-01-12T01:16:10.640Z,7.40
2023-01-12T01:18:56.011Z,7.40
2023-01-12T01:21:41.277Z,7.30
2023-01-12T01:24:26.221Z,7.30
2023-01-12T01:27:11.226Z,7.40
2023-01-12T01:29:56.346Z,7.40
2023-01-12T01:32:41.310Z,7.30
2023-01-12T01:35:26.378Z,7.30
2023-01-12T01:38:11.293Z,7.40
2023-01-12T01:40:56.468Z,7.40
2023-01-12T01:43:49.156Z,7.50
2023-01-12T01:46:43.901Z,7.50
2023-01-12T01:49:32.043Z,7.40
2023-01-12T01:52:25.735Z,7.50
2023-01-12T01:55:10.668Z,7.40
2023-01-12T01:57:57.932Z,7.30
2023-01-12T02:00:43.589Z,7.40
2023-01-12T02:03:29.493Z,7.40
2023-01-12T02:06:16.008Z,7.40
2023-01-12T02:09:05.416Z,7.40
2023-01-12T02:12:09.575Z,7.40
2023-01-12T02:15:13.562Z,7.30
2023-01-12T02:18:05.122Z,7.40
2023-01-12T02:21:01.811Z,7.40
2023-01-12T02:23:55.935Z,7.50
2023-01-12T02:27:07.940Z,7.60
2023-01-12T02:29:53.192Z,7.60
2023-01-12T02:32:44.180Z,7.50
2023-01-12T02:35:40.208Z,7.60
2023-01-12T02:38:31.570Z,7.50
2023-01-12T02:41:47.698Z,7.50
2023-01-12T02:45:02.436Z,7.50
2023-01-12T02:48:06.484Z,7.50
2023-01-12T02:50:54.137Z,7.50
2023-01-12T02:53:44.827Z,7.50
2023-01-12T02:56:31.602Z,7.40
2023-01-12T02:59:26.032Z,7.50
2023-01-12T03:02:16.450Z,7.60
2023-01-12T03:05:02.259Z,7.60
2023-01-12T03:07:51.343Z,7.60
2023-01-12T03:10:44.778Z,7.60
2023-01-12T03:13:31.339Z,7.50
2023-01-12T03:16:18.923Z,7.50
2023-01-12T03:19:09.308Z,7.50
2023-01-12T03:21:59.381Z,7.50
2023-01-12T03:24:46.382Z,7.50
2023-01-12T03:27:39.207Z,7.40
2023-01-12T03:30:37.173Z,7.40
2023-01-12T03:33:22.970Z,7.50
2023-01-12T03:36:11.500Z,7.50
2023-01-12T03:39:12.910Z,7.40
2023-01-12T03:42:02.604Z,7.50
2023-01-12T03:44:59.619Z,7.40
2023-01-12T03:47:44.829Z,7.40
2023-01-12T03:50:50.757Z,7.40
2023-01-12T03:53:36.441Z,7.50
2023-01-12T03:56:23.013Z,7.50
2023-01-12T03:59:09.586Z,7.50
2023-01-12T04:01:54.768Z,7.50
2023-01-12T04:04:40.343Z,7.40
2023-01-12T04:07:25.439Z,7.50
2023-01-12T04:10:10.716Z,7.50
2023-01-12T04:12:55.858Z,7.50
2023-01-12T04:15:43.878Z,7.60
2023-01-12T04:18:28.837Z,7.50
2023-01-12T04:21:32.621Z,7.50
2023-01-12T04:24:17.729Z,7.50
2023-01-12T04:27:03.335Z,7.60
2023-01-12T04:29:48.412Z,7.60
2023-01-12T04:32:33.394Z,7.60
2023-01-12T04:35:18.714Z,7.70
2023-01-12T04:38:08.027Z,7.70
2023-01-12T04:40:53.955Z,7.60
2023-01-12T04:43:39.903Z,7.60
2023-01-12T04:46:25.082Z,7.70
2023-01-12T04:49:10.205Z,7.70
2023-01-12T04:51:55.375Z,7.60
2023-01-12T04:54:40.431Z,7.60
2023-01-12T04:57:25.418Z,7.60
2023-01-12T05:00:11.145Z,7.60
2023-01-12T05:03:02.235Z,7.60
2023-01-12T05:05:47.635Z,7.60
2023-01-12T05:08:51.598Z,7.60
2023-01-12T05:11:37.401Z,7.60
2023-01-12T05:14:22.441Z,7.50
2023-01-12T05:17:07.597Z,7.60
2023-01-12T05:19:52.652Z,7.80
2023-01-12T05:22:37.631Z,7.80
2023-01-12T05:25:22.804Z,7.60
2023-01-12T05:28:07.817Z,7.70
2023-01-12T05:30:53.039Z,7.70
2023-01-12T05:33:40.146Z,7.80
2023-01-12T05:36:26.624Z,7.70
2023-01-12T05:39:11.842Z,7.70
2023-01-12T05:42:15.623Z,7.70
2023-01-12T05:45:00.991Z,7.80
2023-01-12T05:47:46.003Z,7.80
2023-01-12T05:50:31.063Z,7.80
2023-01-12T05:53:16.096Z,7.70
2023-01-12T05:56:11.817Z,7.70
2023-01-12T05:58:58.634Z,7.60
2023-01-12T06:01:44.067Z,7.70
2023-01-12T06:04:29.096Z,7.70
2023-01-12T06:07:14.688Z,7.80
2023-01-12T06:09:59.728Z,7.80
2023-01-12T06:13:03.567Z,7.80
2023-01-12T06:15:48.879Z,7.80
2023-01-12T06:18:34.769Z,7.70
2023-01-12T06:21:20.090Z,7.70
2023-01-12T06:24:05.293Z,7.80
2023-01-12T06:26:50.629Z,7.90
2023-01-12T06:29:35.583Z,7.80
2023-01-12T06:32:20.612Z,7.80
2023-01-12T06:35:18.045Z,7.90
2023-01-12T06:38:04.221Z,8.00
2023-01-12T06:40:50.257Z,8.00
2023-01-12T06:43:35.366Z,8.00
2023-01-12T06:46:20.617Z,7.90
2023-01-12T06:49:05.552Z,7.90
2023-01-12T06:51:51.564Z,7.90
2023-01-12T06:54:36.616Z,7.80
2023-01-12T06:57:21.699Z,7.80
2023-01-12T07:00:07.197Z,7.80
2023-01-12T07:02:52.707Z,7.70
2023-01-12T07:05:38.264Z,7.80
2023-01-12T07:08:23.187Z,7.70
2023-01-12T07:11:08.407Z,7.80
2023-01-12T07:13:54.766Z,7.80
2023-01-12T07:16:40.200Z,7.70
2023-01-12T07:19:25.628Z,7.70
2023-01-12T07:22:10.586Z,7.70
2023-01-12T07:24:57.698Z,7.80
2023-01-12T07:27:50.013Z,7.70
2023-01-12T07:30:35.363Z,7.70
2023-01-12T07:33:20.247Z,7.70
2023-01-12T07:36:05.608Z,7.80
2023-01-12T07:38:50.950Z,7.90
2023-01-12T07:41:54.944Z,7.70
2023-01-12T07:44:40.395Z,8.00
2023-01-12T07:47:27.672Z,7.90
2023-01-12T07:50:13.241Z,7.80
2023-01-12T07:53:02.312Z,7.90
2023-01-12T07:55:47.187Z,7.90
2023-01-12T07:58:32.326Z,7.90
2023-01-12T08:01:17.469Z,7.90
2023-01-12T08:04:02.839Z,7.80
2023-01-12T08:06:48.173Z,7.80
2023-01-12T08:09:33.484Z,7.80
2023-01-12T08:12:18.680Z,7.80
2023-01-12T08:15:04.432Z,7.80
2023-01-12T08:17:56.408Z,7.80
2023-01-12T08:20:41.795Z,7.80
2023-01-12T08:23:34.399Z,7.80
2023-01-12T08:26:23.786Z,7.80
2023-01-12T08:29:13.827Z,7.80
2023-01-12T08:32:01.152Z,7.80
2023-01-12T08:34:49.768Z,7.80
2023-01-12T08:37:35.564Z,7.70
2023-01-12T08:40:20.949Z,7.80
2023-01-12T08:43:06.233Z,7.70
2023-01-12T08:45:51.135Z,7.70
2023-01-12T08:48:37.178Z,7.70
2023-01-12T08:51:22.214Z,7.80
2023-01-12T08:54:07.806Z,7.80
2023-01-12T08:56:54.634Z,7.90
2023-01-12T08:59:40.301Z,7.90
2023-01-12T09:02:26.897Z,8.00
2023-01-12T09:05:12.237Z,8.00
2023-01-12T09:07:57.364Z,8.00
2023-01-12T09:10:42.347Z,8.10
2023-01-12T09:13:27.405Z,8.10
2023-01-12T09:16:14.231Z,8.10
2023-01-12T09:18:59.599Z,8.10
2023-01-12T09:21:44.560Z,8.10
2023-01-12T09:24:29.567Z,8.10
2023-01-12T09:27:14.667Z,8.00
2023-01-12T09:29:59.622Z,8.00
2023-01-12T09:32:44.843Z,8.00
2023-01-12T09:35:30.253Z,8.10
2023-01-12T09:38:15.499Z,8.00
2023-01-12T09:41:02.606Z,8.00
2023-01-12T09:44:06.345Z,8.10
2023-01-12T09:47:00.877Z,8.00
2023-01-12T09:49:50.359Z,7.90
2023-01-12T09:52:44.657Z,8.00
2023-01-12T09:55:50.387Z,8.10
2023-01-12T09:58:38.555Z,8.10
2023-01-12T10:01:29.760Z,8.20
2023-01-12T10:04:15.384Z,8.20
2023-01-12T10:07:01.823Z,8.20
2023-01-12T10:09:46.825Z,8.10
2023-01-12T10:12:41.994Z,8.20
2023-01-12T10:15:39.219Z,8.20
2023-01-12T10:18:29.880Z,8.20
2023-01-12T10:21:15.073Z,8.20
2023-01-12T10:24:00.137Z,8.20
2023-01-12T10:26:45.101Z,8.20
2023-01-12T10:29:31.406Z,8.20
2023-01-12T10:32:16.541Z,8.30
2023-01-12T10:35:01.687Z,8.20
2023-01-12T10:37:51.246Z,8.20
2023-01-12T10:40:36.209Z,8.30
2023-01-12T10:43:31.709Z,8.20
2023-01-12T10:46:17.985Z,8.20
2023-01-12T10:49:15.384Z,8.10
2023-01-12T10:52:08.633Z,8.00
2023-01-12T10:54:57.107Z,8.00
2023-01-12T10:57:44.703Z,8.00
2023-01-12T11:00:29.937Z,8.10
2023-01-12T11:03:27.911Z,8.00
2023-01-12T11:06:16.495Z,8.10
2023-01-12T11:09:17.098Z,8.10
2023-01-12T11:12:03.530Z,8.10
2023-01-12T11:14:58.011Z,8.20
2023-01-12T11:17:58.374Z,8.20
2023-01-12T11:20:43.392Z,8.10
2023-01-12T11:23:40.475Z,8.10
2023-01-12T11:26:32.587Z,8.10
2023-01-12T11:29:24.000Z,8.10
2023-01-12T11:32:15.563Z,8.10
2023-01-12T11:35:04.936Z,7.90
2023-01-12T11:37:52.264Z,8.10
2023-01-12T11:40:38.617Z,8.10
2023-01-12T11:43:45.531Z,8.10
2023-01-12T11:46:49.383Z,8.10
2023-01-12T11:49:53.395Z,8.10
2023-01-12T11:52:38.424Z,8.10
2023-01-12T11:55:44.960Z,8.20
2023-01-12T11:58:33.366Z,8.10
2023-01-12T12:01:21.483Z,8.20
2023-01-12T12:04:14.278Z,8.20
2023-01-12T12:07:24.999Z,8.20
2023-01-12T12:10:22.230Z,8.20
2023-01-12T12:13:25.064Z,8.20
2023-01-12T12:16:13.171Z,8.20
2023-01-12T12:19:02.094Z,8.20
2023-01-12T12:21:49.062Z,8.30
2023-01-12T12:25:03.896Z,8.20
2023-01-12T12:27:48.911Z,8.20
2023-01-12T12:30:47.114Z,8.30
2023-01-12T12:33:51.288Z,8.30
2023-01-12T12:36:55.166Z,8.30
2023-01-12T12:39:57.127Z,8.30
2023-01-12T12:43:10.084Z,8.30
2023-01-12T12:46:12.531Z,8.30
2023-01-12T12:49:04.719Z,8.30
2023-01-12T12:51:50.723Z,8.20
2023-01-12T12:54:36.544Z,8.30
2023-01-12T12:57:21.784Z,8.30
2023-01-12T13:00:27.092Z,8.40
2023-01-12T13:03:31.986Z,8.40
2023-01-12T13:06:17.421Z,8.50
2023-01-12T13:09:22.459Z,8.50
2023-01-12T13:12:07.598Z,8.50
2023-01-12T13:15:14.913Z,8.50
2023-01-12T13:18:00.431Z,8.40
2023-01-12T13:20:50.567Z,8.50
2023-01-12T13:23:43.410Z,8.50
2023-01-12T13:26:35.016Z,8.60
2023-01-12T13:29:23.429Z,8.60
2023-01-12T13:32:27.382Z,8.50
2023-01-12T13:35:31.210Z,8.60
2023-01-12T13:38:38.904Z,8.60
2023-01-12T13:41:44.940Z,8.60
2023-01-12T13:44:33.554Z,8.60
2023-01-12T13:47:26.389Z,8.60
2023-01-12T13:50:20.124Z,8.70
2023-01-12T13:53:05.347Z,8.70
2023-01-12T13:56:01.237Z,8.60
2023-01-12T13:58:49.901Z,8.60
2023-01-12T14:01:37.437Z,8.60
2023-01-12T14:04:35.228Z,8.60
2023-01-12T14:07:40.503Z,8.70
2023-01-12T14:10:44.749Z,8.80
2023-01-12T14:13:36.012Z,8.80
2023-01-12T14:16:40.742Z,8.80
2023-01-12T14:19:26.943Z,8.80
2023-01-12T14:22:19.299Z,8.80
2023-01-12T14:25:14.988Z,8.70
2023-01-12T14:28:00.388Z,8.90
2023-01-12T14:30:55.190Z,8.80
2023-01-12T14:33:47.613Z,8.80
2023-01-12T14:36:43.024Z,8.80
2023-01-12T14:39:29.560Z,8.80
2023-01-12T14:42:37.201Z,8.80
2023-01-12T14:45:45.389Z,8.90
2023-01-12T14:48:32.247Z,8.80
2023-01-12T14:51:36.419Z,8.80
2023-01-12T14:54:25.564Z,8.90
2023-01-12T14:57:19.636Z,8.90
2023-01-12T15:00:05.355Z,8.90
2023-01-12T15:02:51.799Z,8.90
2023-01-12T15:05:37.486Z,9.00
2023-01-12T15:08:26.971Z,8.90
2023-01-12T15:11:11.947Z,9.00
2023-01-12T15:14:00.700Z,9.00
2023-01-12T15:17:04.529Z,9.00
2023-01-12T15:20:08.687Z,8.90
2023-01-12T15:23:12.912Z,9.00
2023-01-12T15:25:58.217Z,9.10
2023-01-12T15:28:44.775Z,9.00
2023-01-12T15:31:29.942Z,9.10
2023-01-12T15:34:14.853Z,9.00
2023-01-12T15:36:59.784Z,8.90
2023-01-12T15:39:45.058Z,9.00
2023-01-12T15:42:30.539Z,9.00
2023-01-12T15:45:18.225Z,9.00
2023-01-12T15:48:04.241Z,9.00
2023-01-12T15:50:49.381Z,9.00
2023-01-12T15:53:34.453Z,9.00
2023-01-12T15:56:19.573Z,9.00
2023-01-12T15:59:04.648Z,9.10
2023-01-12T16:01:50.009Z,9.00
2023-01-12T16:04:42.604Z,9.00
2023-01-12T16:07:28.615Z,9.10
2023-01-12T16:10:14.667Z,9.10
2023-01-12T16:13:01.798Z,9.00
2023-01-12T16:15:46.811Z,9.00
2023-01-12T16:18:32.431Z,9.00
2023-01-12T16:21:18.548Z,8.90
2023-01-12T16:24:03.848Z,9.00
2023-01-12T16:26:50.035Z,8.90
2023-01-12T16:29:35.621Z,9.00
2023-01-12T16:32:24.555Z,9.00
2023-01-12T16:35:09.913Z,9.00
2023-01-12T16:37:55.075Z,8.90
2023-01-12T16:40:40.963Z,9.00
2023-01-12T16:43:26.205Z,8.90
2023-01-12T16:46:11.820Z,8.90
2023-01-12T16:48:58.517Z,8.80
2023-01-12T16:51:43.551Z,8.70
2023-01-12T16:54:28.875Z,8.80
2023-01-12T16:57:15.784Z,8.70
2023-01-12T17:00:00.866Z,8.60
2023-01-12T17:02:47.218Z,8.60
2023-01-12T17:05:32.472Z,8.70
2023-01-12T17:08:18.115Z,8.70
2023-01-12T17:11:14.351Z,8.80
2023-01-12T17:13:59.710Z,8.80
2023-01-12T17:16:45.321Z,8.80
2023-01-12T17:19:34.055Z,8.90
2023-01-12T17:22:19.659Z,8.90
2023-01-12T17:25:06.023Z,8.90
2023-01-12T17:27:51.226Z,8.80
2023-01-12T17:30:38.897Z,8.90
2023-01-12T17:33:24.027Z,8.80
2023-01-12T17:36:09.692Z,8.80
2023-01-12T17:38:55.176Z,8.90
2023-01-12T17:41:58.735Z,9.10
2023-01-12T17:44:44.239Z,8.90
2023-01-12T17:47:29.509Z,9.00
2023-01-12T17:50:14.776Z,9.00
2023-01-12T17:53:00.417Z,9.00
2023-01-12T17:55:48.734Z,9.00
2023-01-12T17:58:34.068Z,9.10
2023-01-12T18:01:19.261Z,9.20
2023-01-12T18:04:04.788Z,9.30
2023-01-12T18:06:49.812Z,9.20
2023-01-12T18:09:36.727Z,9.20
2023-01-12T18:12:24.351Z,9.20
2023-01-12T18:15:10.251Z,9.30
2023-01-12T18:17:55.223Z,9.30
2023-01-12T18:20:40.141Z,9.30
2023-01-12T18:23:25.305Z,9.30
2023-01-12T18:26:12.012Z,9.30
2023-01-12T18:28:57.827Z,9.30
2023-01-12T18:31:42.886Z,9.30
2023-01-12T18:34:28.385Z,9.20
2023-01-12T18:37:13.833Z,9.30
2023-01-12T18:39:58.969Z,9.30
2023-01-12T18:42:49.930Z,9.30
2023-01-12T18:45:34.946Z,9.40
2023-01-12T18:48:24.132Z,9.50
2023-01-12T18:51:28.011Z,9.50
2023-01-12T18:54:13.333Z,9.50
2023-01-12T18:56:58.439Z,9.40
2023-01-12T18:59:43.674Z,9.30
2023-01-12T19:02:29.877Z,9.30
2023-01-12T19:05:33.867Z,9.40
2023-01-12T19:08:28.422Z,9.40
2023-01-12T19:11:14.232Z,9.30
2023-01-12T19:14:18.446Z,9.40
2023-01-12T19:17:22.410Z,9.40
2023-01-12T19:20:09.094Z,9.40
2023-01-12T19:23:12.886Z,9.30
2023-01-12T19:26:23.166Z,9.30
2023-01-12T19:29:09.025Z,9.30
2023-01-12T19:31:54.232Z,9.30
2023-01-12T19:34:39.335Z,9.40
2023-01-12T19:37:24.528Z,9.40
2023-01-12T19:40:19.892Z,9.40
2023-01-12T19:43:17.736Z,9.40
2023-01-12T19:46:03.693Z,9.40
2023-01-12T19:48:48.909Z,9.40
2023-01-12T19:51:33.875Z,9.30
2023-01-12T19:54:18.969Z,9.20
2023-01-12T19:57:04.025Z,9.30
2023-01-12T19:59:49.210Z,9.30
2023-01-12T20:02:34.455Z,9.20
2023-01-12T20:05:22.697Z,9.30
2023-01-12T20:08:08.105Z,9.20
2023-01-12T20:10:54.497Z,9.20
2023-01-12T20:13:39.562Z,9.20
2023-01-12T20:16:24.780Z,9.30
2023-01-12T20:19:09.895Z,9.30
2023-01-12T20:21:55.451Z,9.30
2023-01-12T20:24:40.591Z,9.30
2023-01-12T20:27:25.880Z,9.40
2023-01-12T20:30:15.137Z,9.50
2023-01-12T20:33:02.199Z,9.40
2023-01-12T20:35:48.738Z,9.50
2023-01-12T20:38:33.832Z,9.40
2023-01-12T20:41:18.705Z,9.40
2023-01-12T20:44:06.807Z,9.30
2023-01-12T20:46:51.916Z,9.20
2023-01-12T20:49:36.853Z,9.30
2023-01-12T20:52:22.529Z,9.20
2023-01-12T20:55:07.827Z,9.30
2023-01-12T20:57:52.765Z,9.30
2023-01-12T21:00:37.888Z,9.30
2023-01-12T21:03:23.091Z,9.30
2023-01-12T21:06:15.579Z,9.10
2023-01-12T21:09:00.723Z,9.20
2023-01-12T21:11:47.338Z,9.20
2023-01-12T21:14:32.826Z,9.30
2023-01-12T21:17:18.463Z,9.30
2023-01-12T21:20:03.643Z,9.30
2023-01-12T21:22:48.987Z,9.30
2023-01-12T21:25:34.406Z,9.40
2023-01-12T21:28:19.818Z,9.40
2023-01-12T21:31:05.567Z,9.30
2023-01-12T21:33:50.817Z,9.30
2023-01-12T21:36:35.864Z,9.20
2023-01-12T21:39:20.905Z,9.20
2023-01-12T21:42:24.880Z,9.10
2023-01-12T21:45:10.138Z,9.20
2023-01-12T21:47:55.419Z,9.40
2023-01-12T21:50:41.075Z,9.30
2023-01-12T21:53:26.445Z,9.40
2023-01-12T21:56:12.253Z,9.30
2023-01-12T21:58:57.956Z,9.40
2023-01-12T22:01:43.108Z,9.40
2023-01-12T22:04:28.572Z,9.30
2023-01-12T22:07:13.945Z,9.40
2023-01-12T22:10:18.841Z,9.30
2023-01-12T22:13:06.556Z,9.30
2023-01-12T22:15:53.219Z,9.30
2023-01-12T22:18:38.964Z,9.30
2023-01-12T22:21:24.202Z,9.40
2023-01-12T22:24:09.072Z,9.40
2023-01-12T22:26:54.398Z,9.30
2023-01-12T22:29:39.765Z,9.40
2023-01-12T22:32:25.424Z,9.40
2023-01-12T22:35:11.010Z,9.40
2023-01-12T22:37:56.087Z,9.40
2023-01-12T22:40:41.371Z,9.30
2023-01-12T22:43:26.303Z,9.40
2023-01-12T22:46:12.429Z,9.30
2023-01-12T22:48:59.352Z,9.40
2023-01-12T22:51:44.406Z,9.40
2023-01-12T22:54:29.472Z,9.40
2023-01-12T22:57:14.485Z,9.40
2023-01-12T22:59:59.565Z,9.40
2023-01-12T23:03:00.074Z,9.50
2023-01-12T23:05:50.032Z,9.40
2023-01-12T23:08:35.761Z,9.50
2023-01-12T23:11:22.039Z,9.50
2023-01-12T23:14:08.259Z,9.40
2023-01-12T23:16:53.644Z,9.50
2023-01-12T23:19:39.180Z,9.50
2023-01-12T23:22:24.816Z,9.50
2023-01-12T23:25:09.789Z,9.50
2023-01-12T23:27:54.953Z,9.50
2023-01-12T23:30:40.748Z,9.50
2023-01-12T23:33:26.008Z,9.60
2023-01-12T23:36:13.681Z,9.70
2023-01-12T23:39:00.695Z,9.70
2023-01-12T23:41:46.039Z,9.60
2023-01-12T23:44:31.225Z,9.60
2023-01-12T23:47:19.240Z,9.50
2023-01-12T23:50:06.107Z,9.50
2023-01-12T23:52:51.425Z,9.50
2023-01-12T23:55:39.749Z,9.60
2023-01-12T23:58:25.113Z,9.60
